Time;durP1;ratioP1;P1;durP2;ratioP2;P2;SDS_P1;SDS_P2;PMS_P1;PMS_P2;Temp;Humidity;BMP_temperature;BMP_pressure;BME280_temperature;BME280_humidity;BME280_pressure;Samples;Min_cycle;Max_cycle;Signal;HPM_P1;HPM_P2
2021/05/22 00:01:35;;;;;;;3.13;2.85;;;;;;;29.72;55.65;100723.91;5073557;28;65835;-37
2021/05/22 00:04:06;;;;;;;5.43;3.28;;;;;;;29.71;56.03;100724.97;5072212;28;69915;-37
2021/05/22 00:06:36;;;;;;;6.32;3.08;;;;;;;29.79;55.56;100733.66;5069792;27;66613;-37
2021/05/22 00:09:07;;;;;;;8.27;3.47;;;;;;;29.74;56.32;100725.38;5070917;28;70169;-37
2021/05/22 00:11:37;;;;;;;10.85;3.75;;;;;;;29.90;58.86;100740.25;5070626;27;66810;-37
2021/05/22 00:14:08;;;;;;;7.27;4.27;;;;;;;29.91;58.98;100741.09;5070322;27;69356;-37
2021/05/22 00:16:39;;;;;;;13.55;4.45;;;;;;;30.05;60.34;100750.78;5072735;27;66490;-38
2021/05/22 00:19:09;;;;;;;8.95;5.03;;;;;;;30.11;60.11;100752.59;5076680;27;69887;-38
2021/05/22 00:21:39;;;;;;;6.93;4.72;;;;;;;30.16;60.66;100750.06;5075999;28;66030;-38
2021/05/22 00:24:10;;;;;;;18.92;5.50;;;;;;;30.21;62.20;100742.13;5079109;27;69839;-38
2021/05/22 00:26:40;;;;;;;13.90;5.38;;;;;;;29.99;62.52;100705.66;5078607;27;67486;-36
2021/05/22 00:29:13;;;;;;;8.75;7.07;;;;;;;30.14;63.32;100719.69;5076551;27;69898;-36
2021/05/22 00:31:44;;;;;;;25.45;5.75;;;;;;;30.22;62.92;100730.28;5076369;27;65888;-38
2021/05/22 00:34:14;;;;;;;26.38;7.53;;;;;;;30.23;63.45;100739.25;5073950;27;69410;-37
2021/05/22 00:36:44;;;;;;;32.90;6.75;;;;;;;30.23;64.04;100748.19;5069439;27;65975;-37
2021/05/22 00:39:16;;;;;;;15.80;6.57;;;;;;;30.27;63.83;100757.50;5068517;28;70025;-35
2021/05/22 00:41:46;;;;;;;15.65;5.22;;;;;;;30.25;63.33;100762.31;5077424;27;65464;-38
2021/05/22 00:44:20;;;;;;;12.52;5.25;;;;;;;30.17;63.92;100746.34;5073800;28;69858;-38
2021/05/22 00:46:50;;;;;;;10.55;5.63;;;;;;;30.27;64.51;100762.94;5069005;27;66123;-38
2021/05/22 00:49:20;;;;;;;11.73;6.43;;;;;;;30.24;63.99;100763.38;5069021;27;70110;-37
2021/05/22 00:51:51;;;;;;;9.80;5.72;;;;;;;30.01;64.05;100734.16;5067721;27;65754;-38
2021/05/22 00:54:22;;;;;;;8.15;5.63;;;;;;;30.03;65.42;100748.31;5068028;27;69608;-39
2021/05/22 00:56:52;;;;;;;9.15;6.82;;;;;;;30.23;65.38;100777.97;5068778;28;65858;-39
2021/05/22 00:59:22;;;;;;;16.10;14.43;;;;;;;30.24;64.73;100782.31;5073240;27;69031;-39
2021/05/22 01:01:52;;;;;;;12.20;11.10;;;;;;;30.23;65.16;100775.25;5068930;28;66572;-39
2021/05/22 01:04:24;;;;;;;19.65;9.85;;;;;;;29.83;64.79;100713.25;5070735;28;69022;-40
2021/05/22 01:06:54;;;;;;;11.80;7.90;;;;;;;30.24;65.35;100776.06;5071014;27;64872;-39
2021/05/22 01:09:25;;;;;;;11.48;7.32;;;;;;;30.25;64.70;100786.66;5067877;27;69592;-40
2021/05/22 01:12:00;;;;;;;12.75;7.97;;;;;;;29.63;64.45;100677.41;5071749;28;66040;-39
2021/05/22 01:15:11;;;;;;;14.35;7.35;;;;;;;30.25;65.85;100793.94;5063886;28;69402;-39
2021/05/22 01:17:48;;;;;;;13.57;7.10;;;;;;;30.20;65.26;100780.22;5069041;27;66007;-38
2021/05/22 01:20:46;;;;;;;7.53;6.93;;;;;;;30.27;66.01;100800.81;5067371;27;70043;-39
2021/05/22 01:23:27;;;;;;;8.93;7.32;;;;;;;30.22;65.21;100773.56;5063307;28;65344;-38
2021/05/22 01:25:58;;;;;;;8.50;7.68;;;;;;;30.42;64.42;100805.06;5069377;28;69136;-39
2021/05/22 01:28:30;;;;;;;11.90;8.25;;;;;;;30.43;64.76;100802.16;5069641;27;65243;-38
2021/05/22 01:31:02;;;;;;;12.45;8.63;;;;;;;30.48;64.42;100804.22;5059121;27;70853;-38
2021/05/22 01:33:35;;;;;;;12.90;8.13;;;;;;;30.53;64.45;100809.78;5064447;28;66993;-38
2021/05/22 01:36:06;;;;;;;13.18;8.68;;;;;;;30.24;64.12;100755.25;5061989;28;69393;-38
2021/05/22 01:38:37;;;;;;;10.70;7.30;;;;;;;30.61;64.77;100806.81;5050298;28;68153;-38
2021/05/22 01:41:07;;;;;;;8.88;7.13;;;;;;;30.66;64.85;100812.41;5070617;27;70343;-38
2021/05/22 01:43:42;;;;;;;15.93;6.88;;;;;;;30.61;64.69;100790.56;5067896;28;66207;-39
2021/05/22 01:46:25;;;;;;;16.10;7.20;;;;;;;30.40;64.03;100748.47;5070287;28;70354;-37
2021/05/22 01:48:59;;;;;;;15.07;7.22;;;;;;;30.80;65.02;100823.16;5065938;28;65511;-38
2021/05/22 01:51:29;;;;;;;;;;;;;;;30.61;66.65;100823.06;5066128;28;69071;-38
2021/05/22 01:54:11;;;;;;;18.15;7.13;;;;;;;30.48;65.00;100769.03;5067387;27;67187;-38
2021/05/22 01:56:44;;;;;;;13.77;7.38;;;;;;;30.86;65.19;100823.09;5058566;28;69932;-38
2021/05/22 01:59:16;;;;;;;11.75;7.72;;;;;;;30.91;65.73;100827.84;5064255;27;65414;-37
2021/05/22 02:01:51;;;;;;;19.15;8.07;;;;;;;30.94;65.64;100832.81;5064481;27;71600;-38
2021/05/22 02:04:25;;;;;;;9.30;7.10;;;;;;;30.94;65.61;100840.94;5080703;27;65426;-38
2021/05/22 02:07:00;;;;;;;25.25;9.40;;;;;;;30.81;65.19;100812.09;5062192;28;69665;-36
2021/05/22 02:09:34;;;;;;;65.22;20.10;;;;;;;30.99;65.95;100849.25;5063377;28;67438;-36
2021/05/22 02:12:06;;;;;;;43.13;18.88;;;;;;;30.99;65.77;100843.81;5065170;28;72305;-36
2021/05/22 02:14:37;;;;;;;33.47;15.48;;;;;;;31.01;65.53;100844.44;5063770;28;66189;-38
2021/05/22 02:17:13;;;;;;;40.42;13.98;;;;;;;30.61;63.22;100790.56;5065554;27;70676;-37
2021/05/22 02:19:48;;;;;;;25.98;12.68;;;;;;;30.79;61.21;100835.03;5065354;28;66132;-37
2021/05/22 02:22:21;;;;;;;22.63;12.95;;;;;;;30.19;57.85;100787.50;5066193;27;70308;-38
2021/05/22 02:24:56;;;;;;;21.05;12.00;;;;;;;30.36;57.34;100838.44;5070252;28;68690;-37
2021/05/22 02:27:29;;;;;;;16.13;10.60;;;;;;;30.11;55.66;100827.50;5067149;27;69876;-38
2021/05/22 02:30:01;;;;;;;23.60;11.38;;;;;;;30.04;54.21;100833.78;5030131;28;65837;-38
2021/05/22 02:32:32;;;;;;;20.30;11.00;;;;;;;29.81;52.81;100812.69;5074610;27;69896;-38
2021/05/22 02:35:04;;;;;;;18.13;9.68;;;;;;;29.82;53.00;100829.75;5066473;27;66306;-38
2021/05/22 02:37:36;;;;;;;18.02;9.25;;;;;;;29.45;51.19;100782.63;5068044;27;71680;-38
2021/05/22 02:40:15;;;;;;;11.65;8.48;;;;;;;29.29;48.94;100765.03;5070734;27;66104;-38
2021/05/22 02:42:55;;;;;;;18.65;8.93;;;;;;;29.42;47.54;100801.97;5071382;27;69995;-37
2021/05/22 02:45:30;;;;;;;10.40;8.00;;;;;;;29.45;47.73;100825.88;5071506;28;65989;-37
2021/05/22 02:48:06;;;;;;;20.48;8.48;;;;;;;28.98;47.76;100749.50;5067817;28;69853;-38
2021/05/22 02:50:38;;;;;;;15.57;8.23;;;;;;;29.27;47.09;100811.16;5068610;28;65086;-38
2021/05/22 02:53:11;;;;;;;9.55;6.75;;;;;;;28.97;47.12;100767.53;5067332;27;69526;-37
2021/05/22 02:55:45;;;;;;;23.48;7.65;;;;;;;28.50;46.88;100702.84;5070806;27;66273;-38
2021/05/22 02:58:18;;;;;;;21.33;7.07;;;;;;;28.71;45.75;100753.03;5070570;27;70173;-38
2021/05/22 03:00:49;;;;;;;20.75;6.57;;;;;;;29.01;45.89;100806.59;5071392;27;65368;-38
2021/05/22 03:03:21;;;;;;;35.70;6.70;;;;;;;28.63;46.69;100749.72;5069344;27;69355;-39
2021/05/22 03:05:53;;;;;;;31.13;6.55;;;;;;;29.00;47.42;100798.69;5065103;28;66130;-37
2021/05/22 03:08:23;;;;;;;32.92;6.03;;;;;;;29.07;47.75;100804.97;5063413;28;69980;-38
2021/05/22 03:10:58;;;;;;;19.70;5.80;;;;;;;29.12;48.66;100802.47;5071219;27;66329;-38
2021/05/22 03:13:32;;;;;;;17.63;6.07;;;;;;;29.16;48.78;100803.69;5068957;27;69979;-37
2021/05/22 03:16:04;;;;;;;13.10;5.40;;;;;;;29.00;48.52;100774.41;5074062;27;65179;-38
2021/05/22 03:18:35;;;;;;;14.67;5.60;;;;;;;29.13;47.59;100806.81;5075618;27;69249;-38
2021/05/22 03:21:07;;;;;;;23.30;5.35;;;;;;;29.16;47.51;100803.69;5064361;28;65283;-36
2021/05/22 03:23:41;;;;;;;44.40;6.05;;;;;;;29.18;46.37;100812.44;5083586;27;69035;-38
2021/05/22 03:26:18;;;;;;;42.40;5.88;;;;;;;29.15;45.37;100792.06;5061853;27;66348;-38
2021/05/22 03:29:02;;;;;;;31.30;5.47;;;;;;;29.16;46.27;100787.50;5072602;28;70300;-38
2021/05/22 03:31:35;;;;;;;50.80;5.70;;;;;;;29.13;45.85;100777.13;5067035;27;65564;-38
2021/05/22 03:34:12;;;;;;;36.85;5.13;;;;;;;29.11;44.60;100769.25;5071886;27;68652;-38
2021/05/22 03:36:48;;;;;;;54.30;6.45;;;;;;;29.19;45.46;100770.88;5070687;27;67910;-38
2021/05/22 03:39:21;;;;;;;40.58;4.88;;;;;;;29.21;45.24;100768.78;5068979;27;69951;-38
2021/05/22 03:41:52;;;;;;;16.73;5.05;;;;;;;28.92;44.66;100716.06;5068445;27;65303;-39
2021/05/22 03:44:28;;;;;;;23.08;5.05;;;;;;;29.26;43.97;100755.47;5066523;27;70084;-38
2021/05/22 03:46:59;;;;;;;28.33;5.63;;;;;;;29.25;43.98;100748.41;5066895;28;65768;-38
2021/05/22 03:49:35;;;;;;;25.30;4.75;;;;;;;29.28;44.00;100741.75;5070166;27;70053;-38
2021/05/22 03:52:10;;;;;;;17.13;4.50;;;;;;;29.28;42.90;100730.94;5089361;27;65665;-38
2021/05/22 03:54:40;;;;;;;14.25;4.90;;;;;;;29.20;42.70;100717.66;5072498;28;69636;-38
2021/05/22 03:57:14;;;;;;;31.83;5.32;;;;;;;29.26;44.34;100716.84;5067024;27;66309;-38
2021/05/22 03:59:46;;;;;;;23.90;5.00;;;;;;;29.37;45.42;100725.09;5075759;27;70293;-37
2021/05/22 04:02:28;;;;;;;;;;;;;;;29.16;44.48;100730.78;5073600;27;66204;-39
2021/05/22 04:05:09;;;;;;;14.10;4.80;;;;;;;29.43;44.75;100731.53;5071501;27;70165;-40
2021/05/22 04:07:43;;;;;;;21.83;5.00;;;;;;;29.47;44.30;100729.22;5069451;28;65523;-39
2021/05/22 04:10:20;;;;;;;18.40;5.45;;;;;;;29.52;44.58;100729.41;5069854;28;70497;-40
2021/05/22 04:12:58;;;;;;;29.23;5.10;;;;;;;29.56;44.55;100727.91;5073965;27;65495;-39
2021/05/22 04:15:28;;;;;;;10.95;5.18;;;;;;;29.61;44.96;100725.41;5073809;28;70138;-38
2021/05/22 04:18:00;;;;;;;13.57;4.88;;;;;;;29.62;45.04;100727.06;5074901;27;66419;-38
2021/05/22 04:20:37;;;;;;;21.30;4.63;;;;;;;29.62;44.04;100719.78;5070412;28;69456;-38
2021/05/22 04:23:16;;;;;;;19.80;4.70;;;;;;;29.66;44.28;100711.28;5070552;27;65692;-38
2021/05/22 04:25:47;;;;;;;17.27;4.78;;;;;;;29.64;43.88;100707.94;5075003;27;70653;-38
2021/05/22 04:28:19;;;;;;;14.75;4.45;;;;;;;29.65;43.73;100715.84;5066276;27;66033;-39
2021/05/22 04:30:49;;;;;;;8.80;4.70;;;;;;;29.56;45.51;100695.47;5064432;28;71517;-38
2021/05/22 04:33:20;;;;;;;16.42;4.57;;;;;;;29.67;46.16;100697.56;5071219;27;65256;-38
2021/05/22 04:35:52;;;;;;;13.88;4.72;;;;;;;29.73;45.58;100699.38;5071005;28;70135;-38
2021/05/22 04:38:23;;;;;;;18.75;4.72;;;;;;;29.73;44.83;100683.16;5065464;28;65780;-39
2021/05/22 04:40:53;;;;;;;13.13;3.97;;;;;;;29.70;45.03;100686.31;5066014;27;71260;-38
2021/05/22 04:43:26;;;;;;;10.75;4.15;;;;;;;29.71;44.36;100681.72;5064528;28;66465;-38
2021/05/22 04:46:00;;;;;;;12.23;4.78;;;;;;;29.71;44.37;100676.31;5066547;28;69578;-40
2021/05/22 04:48:43;;;;;;;20.73;4.50;;;;;;;29.60;43.77;100659.69;5061526;28;66131;-39
2021/05/22 04:51:16;;;;;;;17.88;4.03;;;;;;;29.57;43.01;100653.91;5067316;28;70472;-39
2021/05/22 04:53:49;;;;;;;21.70;4.75;;;;;;;29.63;43.26;100658.47;5051187;28;65932;-39
2021/05/22 04:56:20;;;;;;;10.33;3.53;;;;;;;29.63;42.74;100653.06;5062523;27;70125;-38
2021/05/22 04:58:53;;;;;;;20.27;4.00;;;;;;;29.64;42.49;100648.47;5071831;27;65237;-40
2021/05/22 05:01:28;;;;;;;9.23;3.47;;;;;;;29.61;42.11;100644.31;5065732;27;69753;-38
2021/05/22 05:04:02;;;;;;;10.23;3.33;;;;;;;29.61;42.08;100633.50;5064480;28;66457;-39
2021/05/22 05:06:36;;;;;;;9.52;3.70;;;;;;;29.51;40.84;100617.78;5068270;27;70287;-39
2021/05/22 05:09:15;;;;;;;14.30;3.17;;;;;;;29.55;40.90;100629.78;5064016;28;67083;-39
2021/05/22 05:11:50;;;;;;;9.80;3.45;;;;;;;29.55;41.08;100618.16;5068675;28;69275;-39
2021/05/22 05:14:25;;;;;;;7.90;3.30;;;;;;;29.55;40.64;100613.56;5068807;28;65304;-39
2021/05/22 05:17:02;;;;;;;4.75;3.15;;;;;;;29.54;40.41;100601.13;5065954;28;69691;-39
2021/05/22 05:19:47;;;;;;;8.50;3.08;;;;;;;29.51;39.99;100596.16;5052855;28;65952;-39
2021/05/22 05:22:41;;;;;;;8.52;2.80;;;;;;;29.52;40.60;100594.28;5067714;28;69955;-39
2021/05/22 05:25:36;;;;;;;9.40;3.00;;;;;;;29.47;40.76;100572.47;5067890;28;66125;-38
2021/05/22 05:28:10;;;;;;;4.22;2.90;;;;;;;29.55;40.58;100581.13;5071902;28;70080;-39
2021/05/22 05:30:41;;;;;;;5.07;2.45;;;;;;;29.52;40.07;100565.38;5076476;27;65980;-39
2021/05/22 05:33:12;;;;;;;4.18;2.50;;;;;;;29.55;40.29;100569.50;5075263;27;69084;-39
2021/05/22 05:35:49;;;;;;;3.33;3.00;;;;;;;29.59;39.71;100565.34;5064200;27;65956;-38
2021/05/22 05:38:24;;;;;;;7.82;2.30;;;;;;;29.29;39.88;100506.50;5072110;27;69981;-40
2021/05/22 05:40:57;;;;;;;8.02;2.70;;;;;;;29.60;40.07;100558.88;5057953;28;66557;-39
2021/05/22 05:43:31;;;;;;;2.58;2.33;;;;;;;29.60;39.53;100546.19;5068953;28;70599;-39
2021/05/22 05:46:08;;;;;;;5.78;2.33;;;;;;;29.58;39.32;100531.22;5073395;27;66299;-39
2021/05/22 05:48:40;;;;;;;4.28;2.15;;;;;;;29.62;39.43;100529.75;5071800;27;69860;-39
2021/05/22 05:51:20;;;;;;;2.70;2.08;;;;;;;29.64;39.47;100524.97;5073437;28;66298;-38
2021/05/22 05:53:53;;;;;;;6.25;2.38;;;;;;;29.58;39.44;100510.44;5071063;28;69178;-39
2021/05/22 05:56:35;;;;;;;2.67;1.90;;;;;;;29.63;39.53;100515.22;5074044;27;65969;-39
2021/05/22 05:59:07;;;;;;;4.72;1.90;;;;;;;29.63;39.29;100512.50;5072389;28;69941;-39
2021/05/22 06:01:41;;;;;;;4.57;2.20;;;;;;;29.59;39.43;100495.06;5071654;27;66088;-39
2021/05/22 06:04:17;;;;;;;4.07;2.55;;;;;;;29.67;39.34;100497.53;5072004;28;69833;-39
2021/05/22 06:06:49;;;;;;;2.67;1.88;;;;;;;29.67;38.87;100497.53;5070394;28;65109;-39
2021/05/22 06:09:24;;;;;;;2.13;1.40;;;;;;;29.71;39.86;100497.91;5074301;27;69204;-39
2021/05/22 06:11:55;;;;;;;3.08;2.25;;;;;;;29.75;40.10;100477.47;5071887;27;66075;-39
2021/05/22 06:14:31;;;;;;;3.60;1.60;;;;;;;29.78;39.87;100482.44;5070863;28;69632;-39
2021/05/22 06:17:02;;;;;;;2.47;1.80;;;;;;;29.79;39.42;100473.28;5070444;28;66277;-38
2021/05/22 06:19:35;;;;;;;5.38;2.28;;;;;;;29.82;39.87;100476.38;5074420;27;69237;-38
2021/05/22 06:22:08;;;;;;;25.73;2.38;;;;;;;29.76;40.68;100452.94;5075612;27;66040;-38
2021/05/22 06:24:41;;;;;;;4.15;1.80;;;;;;;29.88;40.43;100457.59;5069640;28;69258;-39
2021/05/22 06:27:16;;;;;;;3.53;2.10;;;;;;;29.88;39.98;100460.31;5073769;28;68735;-39
2021/05/22 06:29:47;;;;;;;6.57;1.67;;;;;;;29.88;39.86;100454.91;5072838;28;68990;-39
2021/05/22 06:32:23;;;;;;;6.10;2.10;;;;;;;29.88;39.47;100444.91;5074361;28;65311;-39
2021/05/22 06:35:04;;;;;;;11.55;2.20;;;;;;;29.92;39.55;100461.50;5073430;28;69677;-38
2021/05/22 06:37:38;;;;;;;7.32;2.00;;;;;;;29.92;40.09;100429.91;5069248;28;67047;-39
2021/05/22 06:40:12;;;;;;;8.18;1.92;;;;;;;29.92;40.14;100424.50;5071947;27;70299;-40
2021/05/22 06:42:44;;;;;;;13.50;2.30;;;;;;;29.92;39.46;100412.81;5075349;27;66028;-39
2021/05/22 06:45:17;;;;;;;;;;;;;;;29.62;39.72;100416.22;5065249;28;70181;-38
2021/05/22 06:47:51;;;;;;;4.65;2.00;;;;;;;29.88;39.09;100411.63;5073769;28;65340;-39
2021/05/22 06:50:23;;;;;;;7.78;1.65;;;;;;;29.94;40.14;100410.72;5073104;28;69702;-39
2021/05/22 06:52:57;;;;;;;11.82;2.13;;;;;;;29.91;39.97;100400.34;5060773;28;66417;-38
2021/05/22 06:55:29;;;;;;;9.05;1.77;;;;;;;29.92;39.64;100391.19;5071781;27;69770;-40
2021/05/22 06:58:01;;;;;;;2.35;1.90;;;;;;;29.80;39.27;100373.00;5069480;28;65566;-39
2021/05/22 07:00:34;;;;;;;3.45;1.65;;;;;;;29.91;39.24;100386.84;5071380;28;70290;-39
2021/05/22 07:03:09;;;;;;;5.35;1.92;;;;;;;29.90;39.10;100387.91;5070896;28;66276;-39
2021/05/22 07:05:42;;;;;;;2.03;1.45;;;;;;;29.89;38.71;100375.41;5071025;27;70612;-39
2021/05/22 07:08:14;;;;;;;7.03;1.92;;;;;;;29.88;38.83;100390.81;5073897;27;66167;-39
2021/05/22 07:10:51;;;;;;;2.17;1.98;;;;;;;29.87;38.40;100382.94;5074347;28;70055;-39
2021/05/22 07:13:23;;;;;;;3.20;2.00;;;;;;;29.88;37.99;100381.88;5071934;27;66955;-39
2021/05/22 07:15:54;;;;;;;2.00;1.80;;;;;;;29.86;37.88;100378.56;5071072;28;70416;-40
2021/05/22 07:18:29;;;;;;;5.05;1.90;;;;;;;29.81;38.08;100385.50;5070931;27;65733;-39
2021/05/22 07:21:00;;;;;;;1.63;1.52;;;;;;;29.79;37.56;100371.38;5053005;28;68142;-41
2021/05/22 07:23:40;;;;;;;1.70;1.60;;;;;;;29.80;37.87;100378.41;5062039;28;65344;-39
2021/05/22 07:26:31;;;;;;;2.47;1.63;;;;;;;29.62;37.92;100337.84;5077535;27;70522;-39
2021/05/22 07:29:15;;;;;;;3.78;1.77;;;;;;;29.79;37.67;100360.56;5075548;27;66918;-40
2021/05/22 07:31:48;;;;;;;3.75;1.88;;;;;;;29.79;37.56;100359.72;5077020;27;69035;-39
2021/05/22 07:34:18;;;;;;;7.75;1.95;;;;;;;29.80;38.22;100351.38;5072842;27;66178;-40
2021/05/22 07:36:49;;;;;;;3.03;1.90;;;;;;;29.80;37.55;100345.97;5066944;27;69531;-41
2021/05/22 07:39:20;;;;;;;3.58;2.15;;;;;;;29.80;37.95;100343.28;5074723;27;65232;-40
2021/05/22 07:41:54;;;;;;;2.90;1.88;;;;;;;29.81;37.55;100347.66;5068687;27;69936;-39
2021/05/22 07:44:29;;;;;;;2.85;1.92;;;;;;;29.81;37.96;100347.66;5070465;28;65584;-38
2021/05/22 07:47:01;;;;;;;2.05;1.85;;;;;;;29.82;37.69;100343.06;5068225;28;69654;-38
2021/05/22 07:49:38;;;;;;;1.90;1.65;;;;;;;29.81;37.61;100346.78;5068469;28;66619;-38
2021/05/22 07:52:11;;;;;;;3.78;2.05;;;;;;;29.84;38.31;100352.59;5069670;28;69508;-39
2021/05/22 07:54:49;;;;;;;2.67;2.00;;;;;;;29.86;37.67;100343.41;5063048;28;65324;-38
2021/05/22 07:57:20;;;;;;;2.40;2.20;;;;;;;29.68;37.89;100299.13;5054020;28;70344;-38
2021/05/22 07:59:56;;;;;;;3.38;2.22;;;;;;;29.86;37.77;100332.59;5071504;28;66737;-39
2021/05/22 08:02:30;;;;;;;8.73;2.72;;;;;;;29.86;40.52;100335.31;5073752;28;69981;-38
2021/05/22 08:05:03;;;;;;;12.13;2.92;;;;;;;29.95;41.33;100356.44;5064994;28;66234;-39
2021/05/22 08:07:43;;;;;;;15.23;2.85;;;;;;;29.97;40.77;100350.78;5069242;28;69588;-39
2021/05/22 08:10:16;;;;;;;7.05;2.67;;;;;;;29.98;40.22;100355.97;5074260;27;66379;-39
2021/05/22 08:12:47;;;;;;;2.50;2.30;;;;;;;29.97;40.43;100356.19;5068144;28;69394;-38
2021/05/22 08:15:21;;;;;;;4.93;2.78;;;;;;;29.98;39.92;100353.28;5070279;28;66209;-39
2021/05/22 08:18:02;;;;;;;7.45;2.90;;;;;;;29.99;40.68;100362.19;5072654;28;70202;-38
2021/05/22 08:20:35;;;;;;;26.15;3.38;;;;;;;30.06;46.85;100354.81;5069725;28;66393;-38
2021/05/22 08:23:08;;;;;;;4.93;3.15;;;;;;;30.31;48.44;100365.53;5068407;28;69341;-38
2021/05/22 08:25:40;;;;;;;11.47;2.93;;;;;;;30.40;50.78;100355.25;5067369;27;65936;-38
2021/05/22 08:28:31;;;;;;;9.15;3.60;;;;;;;30.71;51.99;100368.53;5074576;28;69851;-39
2021/05/22 08:31:05;;;;;;;6.45;3.38;;;;;;;30.88;52.43;100379.53;5068938;27;66338;-38
2021/05/22 08:33:36;;;;;;;10.43;3.33;;;;;;;31.06;53.51;100380.50;5066756;28;69271;-38
2021/05/22 08:36:11;;;;;;;20.45;3.25;;;;;;;31.20;55.49;100372.97;5072314;28;65347;-38
2021/05/22 08:38:45;;;;;;;21.42;3.58;;;;;;;31.40;56.37;100387.06;5071715;28;69444;-38
2021/05/22 08:41:18;;;;;;;29.80;3.38;;;;;;;31.56;56.64;100382.78;5074801;27;66724;-38
2021/05/22 08:43:49;;;;;;;13.27;3.08;;;;;;;31.59;56.36;100369.63;5072264;28;70509;-38
2021/05/22 08:46:21;;;;;;;4.70;3.17;;;;;;;31.67;56.88;100371.13;5079131;27;66220;-37
2021/05/22 08:48:51;;;;;;;15.68;3.60;;;;;;;31.73;57.19;100382.91;5076161;27;70055;-37
2021/05/22 08:51:23;;;;;;;;;;;;;;;31.54;58.84;100393.91;5075831;28;66677;-38
2021/05/22 08:53:59;;;;;;;27.08;4.63;;;;;;;31.78;57.81;100404.72;5072164;27;69697;-38
2021/05/22 08:56:38;;;;;;;39.28;5.28;;;;;;;31.86;59.93;100389.97;5065356;27;65438;-39
2021/05/22 08:59:11;;;;;;;17.42;4.63;;;;;;;31.85;59.30;100400.00;5074345;27;69799;-37
2021/05/22 09:01:42;;;;;;;17.63;4.72;;;;;;;31.93;60.17;100421.34;5067692;28;65294;-40
2021/05/22 09:04:17;;;;;;;13.60;4.57;;;;;;;31.90;59.20;100429.94;5073884;28;70216;-38
2021/05/22 09:07:03;;;;;;;13.48;5.28;;;;;;;31.67;60.88;100402.84;5078057;27;65851;-39
2021/05/22 09:09:42;;;;;;;11.63;5.53;;;;;;;31.85;61.38;100437.97;5072187;28;70325;-40
2021/05/22 09:12:19;;;;;;;16.15;6.30;;;;;;;31.73;60.95;100410.00;5071406;28;67286;-38
2021/05/22 09:14:51;;;;;;;15.05;6.13;;;;;;;31.84;61.17;100436.28;5076100;28;69343;-39
2021/05/22 09:17:22;;;;;;;10.25;5.80;;;;;;;31.81;61.80;100429.44;5073294;27;66382;-38
2021/05/22 09:20:10;;;;;;;20.95;6.30;;;;;;;31.79;62.40;100425.34;5071405;28;70002;-40
2021/05/22 09:23:00;;;;;;;20.45;5.55;;;;;;;31.48;62.12;100361.47;5071619;28;65516;-39
2021/05/22 09:25:37;;;;;;;13.52;5.95;;;;;;;31.48;61.35;100362.31;5068482;28;69550;-38
2021/05/22 09:28:14;;;;;;;15.40;5.65;;;;;;;31.85;62.38;100418.16;5064417;28;65515;-38
2021/05/22 09:30:49;;;;;;;20.80;6.15;;;;;;;31.85;62.43;100410.84;5075179;27;70171;-38
2021/05/22 09:33:34;;;;;;;;;;;;;;;31.58;64.48;100408.63;5064831;28;66967;-38
2021/05/22 09:36:08;;;;;;;16.48;6.53;;;;;;;31.16;63.21;100297.59;5068422;27;70497;-38
2021/05/22 09:38:45;;;;;;;13.35;6.97;;;;;;;31.86;63.57;100417.91;5075590;27;65608;-37
2021/05/22 09:41:24;;;;;;;16.25;7.13;;;;;;;31.88;64.34;100413.06;5064864;28;69300;-39
2021/05/22 09:44:14;;;;;;;16.60;7.35;;;;;;;31.81;65.13;100406.94;5073467;28;66197;-38
2021/05/22 09:47:04;;;;;;;12.15;6.93;;;;;;;31.88;64.25;100412.25;5054470;28;69590;-44
2021/05/22 09:49:37;;;;;;;9.05;6.85;;;;;;;31.54;64.94;100360.53;5070315;28;65649;-36
2021/05/22 09:52:13;;;;;;;10.35;7.00;;;;;;;31.64;64.56;100376.19;5070945;28;69428;-38
2021/05/22 09:54:47;;;;;;;11.02;6.78;;;;;;;31.94;64.25;100431.13;5066371;28;66046;-38
2021/05/22 09:57:44;;;;;;;10.48;6.97;;;;;;;31.87;66.22;100449.38;5067496;27;69896;-39
2021/05/22 10:00:19;;;;;;;7.10;6.50;;;;;;;31.94;65.21;100452.84;5066539;28;66263;-38
2021/05/22 10:02:58;;;;;;;7.35;6.63;;;;;;;31.60;65.14;100420.06;5066373;27;70259;-37
2021/05/22 10:05:33;;;;;;;6.65;6.03;;;;;;;31.98;65.37;100477.59;5068763;27;66706;-37
2021/05/22 10:08:05;;;;;;;10.85;6.22;;;;;;;31.60;65.12;100458.00;5065885;28;69333;-38
2021/05/22 10:10:47;;;;;;;6.68;5.97;;;;;;;31.53;65.86;100446.44;5060495;27;66233;-38
2021/05/22 10:13:22;;;;;;;10.15;6.50;;;;;;;31.85;65.34;100511.19;5068023;28;69902;-40
2021/05/22 10:15:57;;;;;;;10.30;5.90;;;;;;;31.61;64.96;100486.75;5068894;27;66912;-37
2021/05/22 10:18:31;;;;;;;12.50;6.07;;;;;;;31.94;65.88;100531.50;5068976;28;70669;-37
2021/05/22 10:21:04;;;;;;;8.18;5.45;;;;;;;31.91;65.67;100548.25;5069119;27;65599;-38
2021/05/22 10:23:38;;;;;;;10.98;5.40;;;;;;;31.88;65.47;100554.13;5069269;27;70782;-39
2021/05/22 10:26:11;;;;;;;7.30;6.55;;;;;;;31.86;65.96;100550.81;5064452;27;66149;-37
2021/05/22 10:28:43;;;;;;;6.38;5.35;;;;;;;31.61;66.05;100516.59;5068587;27;69373;-37
2021/05/22 10:31:14;;;;;;;5.47;4.97;;;;;;;31.84;65.44;100555.63;5070502;28;65981;-38
2021/05/22 10:33:45;;;;;;;5.97;5.35;;;;;;;31.80;65.17;100554.47;5072187;28;69034;-37
2021/05/22 10:36:43;;;;;;;6.25;5.20;;;;;;;31.75;66.21;100540.78;5067134;27;65335;-38
2021/05/22 10:39:39;;;;;;;5.00;4.45;;;;;;;31.73;65.98;100526.63;5066641;28;70386;-38
2021/05/22 10:42:19;;;;;;;5.10;4.55;;;;;;;31.77;65.95;100527.81;5069040;28;65745;-38
2021/05/22 10:44:51;;;;;;;8.20;5.38;;;;;;;31.74;65.59;100534.53;5069665;28;69235;-39
2021/05/22 10:47:22;;;;;;;13.88;4.90;;;;;;;31.75;65.69;100532.63;5074868;28;65760;-38
2021/05/22 10:50:02;;;;;;;6.80;4.90;;;;;;;31.08;66.12;100432.59;5073329;27;69606;-38
2021/05/22 10:52:36;;;;;;;10.23;4.93;;;;;;;31.71;66.55;100534.19;5073097;28;66727;-37
2021/05/22 10:55:13;;;;;;;5.30;4.80;;;;;;;31.70;66.31;100540.66;5071299;27;69361;-38
2021/05/22 10:57:47;;;;;;;5.18;4.70;;;;;;;31.69;66.17;100547.97;5074373;28;65481;-38
2021/05/22 11:00:23;;;;;;;6.45;4.50;;;;;;;31.65;66.58;100545.94;5071536;27;70582;-39
2021/05/22 11:03:07;;;;;;;8.90;4.88;;;;;;;31.59;66.99;100548.56;5068082;28;65625;-37
2021/05/22 11:05:43;;;;;;;5.30;4.57;;;;;;;31.41;65.76;100513.38;5071378;27;69580;-37
2021/05/22 11:08:13;;;;;;;5.47;4.78;;;;;;;31.68;66.34;100556.31;5067651;28;66636;-36
2021/05/22 11:10:59;;;;;;;6.55;4.85;;;;;;;31.41;65.78;100513.38;5066770;28;68917;-36
2021/05/22 11:13:30;;;;;;;4.97;4.25;;;;;;;31.71;66.15;100567.53;5069522;28;66191;-36
2021/05/22 11:16:06;;;;;;;7.38;5.00;;;;;;;31.73;65.27;100553.72;5066070;28;69411;-36
2021/05/22 11:18:36;;;;;;;7.07;4.53;;;;;;;31.73;65.88;100559.16;5069234;27;65092;-36
2021/05/22 11:21:20;;;;;;;5.55;4.93;;;;;;;31.74;65.96;100552.69;5063045;27;69971;-37
2021/05/22 11:24:00;;;;;;;6.82;4.93;;;;;;;31.72;65.66;100552.09;5071513;28;66084;-38
2021/05/22 11:26:53;;;;;;;6.15;5.55;;;;;;;31.70;66.23;100548.78;5067323;27;69129;-36
2021/05/22 11:29:56;;;;;;;7.30;6.70;;;;;;;31.64;64.82;100549.72;5073730;28;65155;-37
2021/05/22 11:32:47;;;;;;;8.55;7.72;;;;;;;31.51;65.41;100559.72;5067773;28;70089;-37
2021/05/22 11:35:28;;;;;;;14.60;8.37;;;;;;;31.47;65.16;100566.66;5070263;28;65285;-37
2021/05/22 11:38:17;;;;;;;11.57;8.35;;;;;;;31.34;65.35;100564.97;5077115;28;69183;-38
2021/05/22 11:41:01;;;;;;;9.45;8.48;;;;;;;31.23;65.27;100556.78;5078845;28;66674;-37
2021/05/22 11:43:41;;;;;;;10.57;7.20;;;;;;;31.31;65.80;100573.53;5078653;28;69307;-38
2021/05/22 11:46:14;;;;;;;9.82;7.85;;;;;;;31.03;66.25;100519.94;5079283;27;66400;-38
2021/05/22 11:48:53;;;;;;;10.57;9.55;;;;;;;31.11;66.18;100535.88;5077840;27;69237;-37
2021/05/22 11:51:28;;;;;;;35.15;24.30;;;;;;;31.40;65.79;100587.63;5076927;27;67033;-37
2021/05/22 11:54:03;;;;;;;75.75;43.67;;;;;;;31.12;66.16;100534.84;5079715;27;69910;-36
2021/05/22 11:56:36;;;;;;;111.65;64.82;;;;;;;31.45;66.58;100595.88;5072570;27;66128;-38
2021/05/22 11:59:13;;;;;;;89.88;57.60;;;;;;;31.42;66.47;100574.66;5078984;27;69996;-37